createdAt,value
2022-12-25T00:01:54.640Z,8.43
2022-12-25T00:04:22.023Z,8.43
2022-12-25T00:06:49.444Z,8.48
2022-12-25T00:09:17.284Z,8.52
2022-12-25T00:11:44.738Z,8.55
2022-12-25T00:14:12.396Z,8.56
2022-12-25T00:16:39.793Z,8.55
2022-12-25T00:19:07.294Z,8.50
2022-12-25T00:21:34.848Z,8.53
2022-12-25T00:24:03.514Z,8.56
2022-12-25T00:26:31.004Z,8.56
2022-12-25T00:28:59.028Z,8.60
2022-12-25T00:31:26.714Z,8.63
2022-12-25T00:33:54.626Z,8.67
2022-12-25T00:36:23.709Z,8.67
2022-12-25T00:38:51.271Z,8.67
2022-12-25T00:41:43.315Z,8.69
2022-12-25T00:44:13.831Z,8.72
2022-12-25T00:46:42.522Z,8.70
2022-12-25T00:49:11.839Z,8.72
2022-12-25T00:51:40.172Z,8.73
2022-12-25T00:54:07.725Z,8.69
2022-12-25T00:56:35.976Z,8.67
2022-12-25T00:59:06.385Z,8.66
2022-12-25T01:01:34.698Z,8.60
2022-12-25T01:04:05.683Z,8.57
2022-12-25T01:06:33.535Z,8.56
2022-12-25T01:09:20.829Z,8.49
2022-12-25T01:11:48.289Z,8.43
2022-12-25T01:14:15.900Z,8.39
2022-12-25T01:16:43.591Z,8.35
2022-12-25T01:19:11.711Z,8.31
2022-12-25T01:21:39.448Z,8.28
2022-12-25T01:24:07.360Z,8.24
2022-12-25T01:26:34.794Z,8.20
2022-12-25T01:29:02.689Z,8.18
2022-12-25T01:31:30.141Z,8.12
2022-12-25T01:33:58.001Z,8.08
2022-12-25T01:36:43.905Z,8.01
2022-12-25T01:39:27.426Z,7.90
2022-12-25T01:42:07.922Z,7.78
2022-12-25T01:47:34.168Z,7.42
2022-12-25T01:50:01.813Z,7.29
2022-12-25T01:52:31.102Z,7.22
2022-12-25T01:55:04.182Z,7.16
2022-12-25T01:57:36.278Z,7.02
2022-12-25T02:00:11.603Z,6.90
2022-12-25T02:02:41.363Z,6.84
2022-12-25T02:05:31.680Z,6.74
2022-12-25T02:08:11.176Z,6.73
2022-12-25T02:10:39.734Z,6.71
2022-12-25T02:13:08.140Z,6.78
2022-12-25T02:16:12.819Z,6.85
2022-12-25T02:19:00.956Z,6.95
2022-12-25T02:21:52.981Z,7.04
2022-12-25T02:24:35.509Z,7.07
2022-12-25T02:27:21.836Z,7.05
2022-12-25T02:30:10.552Z,7.01
2022-12-25T02:32:49.579Z,6.98
2022-12-25T02:35:35.759Z,6.94
2022-12-25T02:38:13.328Z,6.88
2022-12-25T02:40:51.310Z,6.83
2022-12-25T02:43:48.134Z,6.76
2022-12-25T02:46:40.411Z,6.69
2022-12-25T02:49:34.760Z,6.60
2022-12-25T02:52:30.347Z,6.51
2022-12-25T02:55:27.841Z,6.44
2022-12-25T02:58:17.917Z,6.40
2022-12-25T03:01:08.862Z,6.34
2022-12-25T03:04:00.688Z,6.30
2022-12-25T03:06:44.859Z,6.29
2022-12-25T03:09:48.079Z,6.26
2022-12-25T03:12:34.509Z,6.28
2022-12-25T03:15:21.691Z,6.26
2022-12-25T03:17:49.093Z,6.23
2022-12-25T03:20:35.677Z,6.23
2022-12-25T03:23:22.391Z,6.26
2022-12-25T03:26:08.402Z,6.30
2022-12-25T03:28:36.980Z,6.28
2022-12-25T03:31:20.831Z,6.28
2022-12-25T03:34:25.060Z,6.22
2022-12-25T03:37:29.844Z,6.25
2022-12-25T03:40:24.591Z,6.26
2022-12-25T03:43:46.668Z,6.32
2022-12-25T03:46:39.226Z,6.34
2022-12-25T03:49:43.881Z,6.36
2022-12-25T03:52:34.035Z,6.26
2022-12-25T03:55:27.520Z,6.16
2022-12-25T03:58:13.592Z,6.06
2022-12-25T04:00:59.563Z,6.02
2022-12-25T04:03:45.541Z,5.95
2022-12-25T04:06:31.378Z,5.85
2022-12-25T04:09:17.191Z,5.75
2022-12-25T04:12:03.803Z,5.65
2022-12-25T04:14:49.725Z,5.64
2022-12-25T04:17:35.712Z,5.63
2022-12-25T04:20:22.044Z,5.64
2022-12-25T04:23:08.261Z,5.64
2022-12-25T04:25:54.476Z,5.67
2022-12-25T04:28:40.658Z,5.64
2022-12-25T04:31:26.954Z,5.70
2022-12-25T04:34:13.397Z,5.68
2022-12-25T04:36:40.894Z,5.65
2022-12-25T04:39:10.684Z,5.68
2022-12-25T04:41:38.059Z,5.67
2022-12-25T04:44:05.579Z,5.63
2022-12-25T04:46:33.028Z,5.64
2022-12-25T04:49:00.526Z,5.67
2022-12-25T04:51:27.922Z,5.67
2022-12-25T04:53:56.571Z,5.65
2022-12-25T04:56:24.119Z,5.61
2022-12-25T04:58:51.509Z,5.57
2022-12-25T05:01:19.069Z,5.57
2022-12-25T05:03:46.603Z,5.53
2022-12-25T05:06:14.119Z,5.50
2022-12-25T05:08:41.628Z,5.54
2022-12-25T05:11:13.302Z,5.53
2022-12-25T05:13:41.408Z,5.53
2022-12-25T05:16:18.503Z,5.51
2022-12-25T05:18:49.220Z,5.50
2022-12-25T05:21:17.768Z,5.48
2022-12-25T05:23:51.324Z,5.46
2022-12-25T05:26:25.465Z,5.40
2022-12-25T05:28:54.096Z,5.40
2022-12-25T05:31:21.605Z,5.43
2022-12-25T05:33:52.728Z,5.43
2022-12-25T05:36:20.378Z,5.48
2022-12-25T05:38:48.242Z,5.46
2022-12-25T05:41:15.718Z,5.46
2022-12-25T05:43:43.307Z,5.53
2022-12-25T05:46:13.286Z,5.55
2022-12-25T05:48:40.759Z,5.54
2022-12-25T05:51:12.381Z,5.57
2022-12-25T05:53:43.489Z,5.57
2022-12-25T05:56:11.180Z,5.51
2022-12-25T05:58:40.284Z,5.43
2022-12-25T06:01:15.241Z,5.39
2022-12-25T06:03:42.875Z,5.42
2022-12-25T06:06:11.510Z,5.47
2022-12-25T06:08:38.754Z,5.55
2022-12-25T06:11:08.593Z,5.60
2022-12-25T06:13:37.022Z,5.61
2022-12-25T06:16:11.087Z,5.58
2022-12-25T06:18:43.583Z,5.53
2022-12-25T06:21:13.987Z,5.44
2022-12-25T06:23:42.530Z,5.40
2022-12-25T06:26:15.467Z,5.37
2022-12-25T06:28:43.553Z,5.34
2022-12-25T06:31:20.400Z,5.30
2022-12-25T06:33:48.735Z,5.34
2022-12-25T06:36:20.621Z,5.40
2022-12-25T06:38:48.853Z,5.50
2022-12-25T06:41:21.264Z,5.67
2022-12-25T06:44:00.844Z,6.39
2022-12-25T06:46:30.500Z,8.04
2022-12-25T06:48:59.753Z,9.56
2022-12-25T06:51:31.497Z,10.27
2022-12-25T06:54:03.806Z,9.56
2022-12-25T06:56:33.181Z,8.93
2022-12-25T06:59:04.980Z,9.21
2022-12-25T07:01:42.203Z,9.72
2022-12-25T07:04:40.633Z,11.19
2022-12-25T07:07:09.920Z,12.77
2022-12-25T07:09:42.470Z,13.67
2022-12-25T07:12:17.806Z,15.81
2022-12-25T07:14:48.857Z,16.88
2022-12-25T07:17:17.424Z,17.20
2022-12-25T07:19:47.020Z,18.28
2022-12-25T07:22:15.920Z,19.11
2022-12-25T07:24:44.786Z,18.20
2022-12-25T07:27:12.425Z,18.98
2022-12-25T07:29:40.052Z,18.74
2022-12-25T07:32:07.574Z,18.08
2022-12-25T07:34:35.012Z,17.53
2022-12-25T07:37:02.676Z,16.69
2022-12-25T07:39:30.360Z,17.12
2022-12-25T07:41:57.780Z,17.85
2022-12-25T07:44:28.183Z,17.99
2022-12-25T07:46:55.634Z,19.04
2022-12-25T07:49:23.149Z,18.95
2022-12-25T07:51:50.680Z,19.32
2022-12-25T07:54:18.349Z,20.10
2022-12-25T07:56:45.887Z,20.38
2022-12-25T07:59:13.443Z,20.24
2022-12-25T08:01:40.953Z,20.48
2022-12-25T08:04:11.669Z,20.69
2022-12-25T08:06:39.402Z,20.18
2022-12-25T08:09:12.099Z,20.51
2022-12-25T08:11:40.101Z,20.48
2022-12-25T08:14:09.191Z,21.21
2022-12-25T08:16:41.518Z,22.27
2022-12-25T08:19:10.197Z,22.10
2022-12-25T08:21:38.561Z,21.12
2022-12-25T08:24:06.588Z,20.99
2022-12-25T08:26:34.329Z,21.01
2022-12-25T08:29:02.309Z,21.42
2022-12-25T08:31:30.578Z,22.04
2022-12-25T08:33:59.098Z,23.19
2022-12-25T08:36:27.321Z,24.33
2022-12-25T08:39:02.117Z,24.09
2022-12-25T08:41:30.372Z,22.75
2022-12-25T08:43:58.311Z,22.30
2022-12-25T08:46:25.918Z,21.47
2022-12-25T08:48:53.312Z,21.21
2022-12-25T08:51:23.350Z,22.48
2022-12-25T08:53:53.643Z,24.26
2022-12-25T08:56:21.186Z,25.52
2022-12-25T08:58:48.590Z,26.14
2022-12-25T09:01:16.313Z,24.73
2022-12-25T09:03:44.006Z,24.79
2022-12-25T09:06:16.457Z,25.76
2022-12-25T09:08:49.220Z,26.72
2022-12-25T09:11:20.928Z,29.09
2022-12-25T09:13:49.213Z,28.08
2022-12-25T09:16:21.025Z,27.14
2022-12-25T09:18:49.043Z,26.27
2022-12-25T09:21:17.996Z,26.73
2022-12-25T09:23:45.655Z,27.57
2022-12-25T09:26:16.117Z,28.15
2022-12-25T09:28:50.613Z,28.40
2022-12-25T09:31:20.738Z,29.29
2022-12-25T09:33:49.314Z,29.42
2022-12-25T09:36:16.885Z,30.07
2022-12-25T09:38:44.362Z,27.69
2022-12-25T09:41:20.796Z,26.83
2022-12-25T09:44:16.372Z,25.94
2022-12-25T09:47:02.519Z,26.71
2022-12-25T09:50:04.236Z,25.25
2022-12-25T09:52:56.365Z,26.01
2022-12-25T09:55:27.002Z,25.48
2022-12-25T09:57:58.809Z,25.10
2022-12-25T10:00:35.143Z,26.75
2022-12-25T10:03:58.062Z,25.93
2022-12-25T10:06:44.647Z,26.20
2022-12-25T10:09:39.960Z,26.25
2022-12-25T10:12:34.741Z,27.26
2022-12-25T10:15:39.129Z,26.93
2022-12-25T10:18:17.984Z,28.42
2022-12-25T10:20:54.892Z,29.33
2022-12-25T10:23:37.112Z,29.87
2022-12-25T10:26:16.516Z,27.67
2022-12-25T10:28:51.204Z,26.73
2022-12-25T10:31:26.985Z,26.41
2022-12-25T10:33:55.131Z,25.08
2022-12-25T10:36:29.230Z,24.22
2022-12-25T10:38:57.335Z,23.60
2022-12-25T10:42:08.629Z,24.67
2022-12-25T10:44:36.689Z,24.04
2022-12-25T10:47:05.248Z,24.28
2022-12-25T10:49:39.137Z,24.57
2022-12-25T10:52:29.031Z,25.27
2022-12-25T10:54:57.134Z,25.48
2022-12-25T10:57:26.599Z,25.37
2022-12-25T10:59:56.845Z,24.86
2022-12-25T11:02:39.221Z,25.24
2022-12-25T11:05:20.975Z,23.56
2022-12-25T11:07:54.366Z,22.55
2022-12-25T11:10:32.885Z,22.23
2022-12-25T11:13:02.572Z,22.73
2022-12-25T11:15:44.826Z,22.95
2022-12-25T11:18:22.637Z,22.04
2022-12-25T11:20:58.014Z,23.54
2022-12-25T11:23:29.491Z,22.25
2022-12-25T11:26:05.316Z,24.05
2022-12-25T11:28:37.020Z,23.84
2022-12-25T11:31:19.202Z,23.53
2022-12-25T11:34:55.509Z,24.55
2022-12-25T11:37:35.576Z,22.92
2022-12-25T11:40:05.240Z,21.24
2022-12-25T11:42:41.121Z,21.06
2022-12-25T11:45:45.335Z,19.87
2022-12-25T11:48:33.628Z,19.97
2022-12-25T11:51:05.122Z,19.42
2022-12-25T11:53:48.194Z,19.55
2022-12-25T11:56:21.667Z,18.40
2022-12-25T11:58:58.317Z,18.71
2022-12-25T12:01:34.208Z,17.02
2022-12-25T12:04:07.010Z,16.44
2022-12-25T12:07:18.986Z,15.79
2022-12-25T12:09:58.407Z,15.49
2022-12-25T12:13:00.964Z,14.83
2022-12-25T12:15:44.736Z,14.88
2022-12-25T12:18:24.084Z,14.83
2022-12-25T12:21:17.469Z,14.52
2022-12-25T12:24:12.037Z,14.15
2022-12-25T12:26:43.609Z,14.11
2022-12-25T12:29:31.383Z,14.08
2022-12-25T12:32:04.899Z,14.12
2022-12-25T12:34:43.956Z,14.22
2022-12-25T12:37:35.566Z,14.19
2022-12-25T12:40:05.797Z,14.21
2022-12-25T12:42:45.117Z,14.05
2022-12-25T12:45:33.764Z,14.01
2022-12-25T12:48:01.831Z,14.00
2022-12-25T12:50:36.109Z,13.98
2022-12-25T12:53:21.849Z,13.95
2022-12-25T12:55:50.512Z,13.97
2022-12-25T12:58:33.735Z,13.98
2022-12-25T13:01:27.054Z,13.92
2022-12-25T13:04:26.211Z,13.90
2022-12-25T13:07:10.213Z,13.88
2022-12-25T13:10:11.564Z,13.95
2022-12-25T13:12:39.157Z,13.90
2022-12-25T13:15:14.134Z,13.88
2022-12-25T13:17:46.872Z,13.78
2022-12-25T13:20:34.542Z,13.78
2022-12-25T13:23:12.438Z,13.77
2022-12-25T13:25:39.948Z,13.73
2022-12-25T13:28:14.781Z,13.69
2022-12-25T13:30:42.768Z,13.75
2022-12-25T13:33:19.651Z,13.73
2022-12-25T13:35:47.626Z,13.74
2022-12-25T13:38:18.176Z,13.69
2022-12-25T13:41:13.722Z,13.64
2022-12-25T13:43:44.167Z,13.63
2022-12-25T13:46:15.284Z,13.64
2022-12-25T13:48:42.913Z,13.57
2022-12-25T13:51:16.806Z,13.54
2022-12-25T13:53:44.248Z,13.54
2022-12-25T13:56:16.287Z,13.52
2022-12-25T13:58:47.782Z,13.46
2022-12-25T14:01:16.603Z,13.38
2022-12-25T14:03:47.506Z,13.35
2022-12-25T14:06:17.757Z,13.20
2022-12-25T14:08:46.298Z,13.11
2022-12-25T14:11:20.885Z,13.06
2022-12-25T14:13:54.186Z,12.99
2022-12-25T14:16:22.513Z,12.98
2022-12-25T14:18:59.835Z,12.91
2022-12-25T14:21:34.623Z,12.85
2022-12-25T14:24:02.424Z,12.80
2022-12-25T14:26:33.383Z,12.77
2022-12-25T14:29:16.564Z,12.68
2022-12-25T14:31:47.015Z,12.61
2022-12-25T14:34:22.724Z,12.51
2022-12-25T14:36:52.577Z,12.40
2022-12-25T14:39:36.501Z,12.33
2022-12-25T14:42:22.202Z,12.20
2022-12-25T14:44:59.097Z,12.13
2022-12-25T14:47:27.534Z,12.06
2022-12-25T14:49:54.875Z,11.99
2022-12-25T14:52:39.831Z,11.92
2022-12-25T14:55:19.711Z,11.78
2022-12-25T14:58:06.183Z,11.74
2022-12-25T15:00:38.006Z,11.62
2022-12-25T15:03:26.564Z,11.48
2022-12-25T15:06:05.987Z,11.40
2022-12-25T15:08:35.360Z,11.24
2022-12-25T15:11:03.588Z,11.13
2022-12-25T15:13:32.481Z,10.95
2022-12-25T15:16:08.948Z,10.85
2022-12-25T15:18:43.697Z,10.73
2022-12-25T15:21:21.491Z,10.58
2022-12-25T15:23:48.927Z,10.41
2022-12-25T15:26:16.683Z,10.27
2022-12-25T15:28:44.135Z,10.14
2022-12-25T15:31:29.061Z,10.00
2022-12-25T15:34:00.362Z,9.91
2022-12-25T15:36:28.245Z,9.82
2022-12-25T15:38:56.456Z,9.73
2022-12-25T15:41:50.677Z,9.63
2022-12-25T15:44:18.648Z,9.55
2022-12-25T15:46:46.592Z,9.46
2022-12-25T15:49:15.729Z,9.34
2022-12-25T15:51:44.880Z,9.21
2022-12-25T15:54:12.847Z,9.18
2022-12-25T15:56:44.394Z,9.15
2022-12-25T15:59:14.535Z,9.10
2022-12-25T16:01:48.155Z,9.08
2022-12-25T16:04:15.737Z,9.07
2022-12-25T16:06:43.265Z,9.01
2022-12-25T16:09:15.184Z,9.08
2022-12-25T16:11:43.728Z,9.17
2022-12-25T16:14:11.782Z,9.25
2022-12-25T16:16:39.774Z,9.27
2022-12-25T16:19:07.554Z,9.18
2022-12-25T16:21:52.959Z,9.25
2022-12-25T16:24:20.307Z,9.39
2022-12-25T16:26:47.712Z,9.43
2022-12-25T16:29:15.271Z,9.51
2022-12-25T16:31:42.869Z,9.58
2022-12-25T16:34:10.602Z,9.59
2022-12-25T16:36:38.120Z,9.46
2022-12-25T16:39:05.984Z,9.27
2022-12-25T16:41:34.359Z,9.05
2022-12-25T16:44:10.161Z,8.93
2022-12-25T16:46:40.428Z,8.79
2022-12-25T16:49:08.728Z,8.63
2022-12-25T16:51:36.186Z,8.64
2022-12-25T16:54:03.834Z,8.70
2022-12-25T16:56:32.388Z,8.73
2022-12-25T16:59:01.232Z,8.69
2022-12-25T17:01:29.080Z,8.59
2022-12-25T17:04:01.575Z,8.48
2022-12-25T17:06:29.573Z,8.49
2022-12-25T17:08:59.982Z,8.52
2022-12-25T17:11:29.933Z,8.50
2022-12-25T17:14:02.078Z,8.49
2022-12-25T17:16:33.405Z,8.45
2022-12-25T17:19:07.905Z,8.38
2022-12-25T17:21:38.325Z,8.31
2022-12-25T17:24:06.694Z,8.26
2022-12-25T17:26:34.225Z,8.18
2022-12-25T17:29:02.138Z,8.22
2022-12-25T17:31:30.176Z,8.26
2022-12-25T17:33:57.756Z,8.28
2022-12-25T17:36:25.157Z,8.21
2022-12-25T17:38:52.936Z,8.11
2022-12-25T17:41:21.351Z,8.07
2022-12-25T17:43:48.754Z,8.11
2022-12-25T17:46:20.107Z,8.14
2022-12-25T17:48:50.048Z,8.08
2022-12-25T17:51:22.048Z,8.07
2022-12-25T17:53:53.362Z,7.98
2022-12-25T17:56:22.820Z,7.94
2022-12-25T17:58:56.665Z,7.86
2022-12-25T18:01:26.472Z,7.81
2022-12-25T18:03:55.309Z,7.78
2022-12-25T18:06:25.799Z,7.78
2022-12-25T18:08:56.392Z,7.70
2022-12-25T18:11:29.261Z,7.71
2022-12-25T18:13:58.252Z,7.63
2022-12-25T18:16:27.257Z,7.53
2022-12-25T18:18:54.849Z,7.46
2022-12-25T18:21:23.243Z,7.35
2022-12-25T18:23:50.703Z,7.35
2022-12-25T18:26:20.446Z,7.30
2022-12-25T18:28:49.604Z,7.32
2022-12-25T18:31:23.685Z,7.32
2022-12-25T18:33:52.155Z,7.39
2022-12-25T18:36:25.928Z,7.43
2022-12-25T18:38:55.109Z,7.39
2022-12-25T18:41:23.373Z,7.36
2022-12-25T18:43:53.920Z,7.36
2022-12-25T18:46:27.667Z,7.32
2022-12-25T18:48:56.576Z,7.40
2022-12-25T18:51:24.718Z,7.49
2022-12-25T18:53:52.179Z,7.63
2022-12-25T18:56:20.684Z,7.74
2022-12-25T18:58:48.089Z,7.88
2022-12-25T19:01:21.984Z,8.02
2022-12-25T19:03:51.711Z,8.12
2022-12-25T19:06:27.984Z,8.25
2022-12-25T19:08:56.318Z,8.32
2022-12-25T19:11:23.781Z,8.39
2022-12-25T19:13:51.220Z,8.38
2022-12-25T19:16:18.810Z,8.39
2022-12-25T19:18:46.509Z,8.34
2022-12-25T19:21:14.034Z,8.32
2022-12-25T19:23:41.470Z,8.29
2022-12-25T19:26:11.274Z,8.25
2022-12-25T19:28:40.167Z,8.24
2022-12-25T19:31:09.944Z,8.18
2022-12-25T19:33:41.765Z,8.15
2022-12-25T19:36:13.060Z,8.12
2022-12-25T19:38:41.623Z,8.11
2022-12-25T19:41:15.428Z,8.16
2022-12-25T19:43:47.523Z,8.24
2022-12-25T19:46:19.689Z,8.32
2022-12-25T19:48:47.782Z,8.35
2022-12-25T19:51:19.493Z,8.39
2022-12-25T19:53:47.274Z,8.39
2022-12-25T19:56:15.414Z,8.36
2022-12-25T19:58:43.377Z,8.35
2022-12-25T20:01:18.509Z,8.26
2022-12-25T20:03:48.600Z,8.25
2022-12-25T20:06:22.046Z,8.25
2022-12-25T20:08:53.811Z,8.21
2022-12-25T20:11:24.053Z,8.22
2022-12-25T20:13:51.858Z,8.25
2022-12-25T20:16:19.372Z,8.35
2022-12-25T20:18:46.918Z,8.42
2022-12-25T20:21:21.354Z,8.49
2022-12-25T20:23:52.059Z,8.50
2022-12-25T20:26:24.280Z,8.53
2022-12-25T20:28:52.482Z,8.43
2022-12-25T20:31:27.254Z,8.35
2022-12-25T20:34:03.449Z,8.24
2022-12-25T20:36:36.377Z,8.08
2022-12-25T20:39:09.884Z,8.01
2022-12-25T20:41:38.985Z,7.80
2022-12-25T20:44:09.926Z,7.74
2022-12-25T20:46:37.478Z,7.73
2022-12-25T20:49:05.436Z,7.80
2022-12-25T20:51:33.122Z,7.90
2022-12-25T20:54:01.220Z,7.93
2022-12-25T20:56:29.984Z,7.88
2022-12-25T20:59:00.117Z,7.88
2022-12-25T21:01:30.451Z,7.87
2022-12-25T21:03:58.630Z,7.84
2022-12-25T21:06:26.259Z,7.80
2022-12-25T21:08:53.745Z,7.77
2022-12-25T21:11:22.009Z,7.67
2022-12-25T21:13:49.848Z,7.66
2022-12-25T21:16:22.233Z,7.69
2022-12-25T21:18:53.145Z,7.70
2022-12-25T21:21:22.095Z,7.59
2022-12-25T21:23:49.858Z,7.45
2022-12-25T21:26:20.286Z,7.25
2022-12-25T21:28:49.551Z,7.11
2022-12-25T21:31:18.784Z,7.04
2022-12-25T21:33:52.401Z,6.92
2022-12-25T21:36:27.311Z,6.81
2022-12-25T21:39:02.161Z,6.63
2022-12-25T21:41:31.545Z,6.61
2022-12-25T21:43:59.624Z,6.50
2022-12-25T21:46:28.373Z,6.39
2022-12-25T21:48:56.663Z,6.37
2022-12-25T21:51:49.607Z,6.43
2022-12-25T21:54:19.575Z,6.42
2022-12-25T21:56:48.208Z,6.37
2022-12-25T21:59:19.300Z,6.37
2022-12-25T22:01:48.274Z,6.37
2022-12-25T22:04:18.417Z,6.47
2022-12-25T22:07:04.827Z,6.49
2022-12-25T22:09:32.851Z,6.50
2022-12-25T22:12:18.828Z,6.34
2022-12-25T22:14:55.433Z,6.23
2022-12-25T22:18:05.596Z,6.30
2022-12-25T22:20:38.502Z,6.49
2022-12-25T22:23:06.033Z,6.47
2022-12-25T22:25:33.439Z,6.49
2022-12-25T22:28:00.824Z,6.60
2022-12-25T22:30:29.739Z,6.78
2022-12-25T22:32:57.462Z,6.91
2022-12-25T22:35:24.951Z,6.99
2022-12-25T22:37:53.979Z,7.18
2022-12-25T22:40:21.894Z,7.26
2022-12-25T22:42:49.553Z,7.29
2022-12-25T22:45:17.127Z,7.29
2022-12-25T22:47:44.572Z,7.26
2022-12-25T22:50:15.068Z,7.32
2022-12-25T22:52:45.686Z,7.36
2022-12-25T22:55:18.267Z,7.43
2022-12-25T22:57:45.747Z,7.53
2022-12-25T23:00:13.925Z,7.55
2022-12-25T23:02:41.477Z,7.50
2022-12-25T23:05:09.333Z,7.46
2022-12-25T23:07:36.806Z,7.40
2022-12-25T23:10:06.361Z,7.39
2022-12-25T23:12:52.068Z,7.28
2022-12-25T23:15:19.512Z,7.18
2022-12-25T23:18:05.162Z,7.09
2022-12-25T23:20:51.846Z,7.01
2022-12-25T23:23:37.868Z,7.08
2022-12-25T23:26:08.200Z,7.18
2022-12-25T23:29:00.265Z,7.19
2022-12-25T23:31:39.711Z,7.23
2022-12-25T23:34:08.643Z,7.22
2022-12-25T23:36:36.623Z,7.22
2022-12-25T23:39:09.554Z,7.18
2022-12-25T23:41:42.681Z,7.12
2022-12-25T23:44:12.805Z,7.09
2022-12-25T23:46:41.770Z,7.05
2022-12-25T23:49:22.392Z,7.05
2022-12-25T23:51:50.049Z,7.05
2022-12-25T23:54:22.235Z,7.07
2022-12-25T23:56:50.703Z,7.11
2022-12-25T23:59:18.877Z,7.08
